ADDS METAR Data INFO
IDs: Format: Raw Decoded Include TAF

Data at: 1558 UTC 12 Dec 2017

KRSN 121535Z AUTO 36007KT 320V020 10SM CLR 10/M01 A3031 RMK AO2 T01031013
KRSN 121515Z AUTO 35008G15KT 10SM CLR 10/M01 A3030 RMK AO2 T00951015
KRSN 121455Z AUTO 35005KT 10SM CLR 09/M01 A3030 RMK AO2 T00911015
KRSN 121435Z AUTO 33006KT 10SM CLR 09/M02 A3029 RMK AO2 T00851020
KRSN 121415Z AUTO 33003KT 10SM CLR 08/M02 A3029 RMK AO2 T00771020
KRSN 121355Z AUTO 34004KT 10SM CLR 07/M02 A3027 RMK AO2 T00701025
KRSN 121335Z AUTO 33003KT 10SM CLR 07/M03 A3027 RMK AO2 T00651030
KRSN 121315Z AUTO 00000KT 10SM CLR 07/M03 A3026 RMK AO2 T00661035
KRSN 121255Z AUTO 33004KT 10SM CLR 07/M04 A3025 RMK AO2 T00681036
KRSN 121235Z AUTO 32003KT 10SM CLR 07/M04 A3025 RMK AO2 T00711039
KRSN 121215Z AUTO 00000KT 10SM CLR 07/M04 A3024 RMK AO2 T00721040
KRSN 121155Z AUTO 00000KT 10SM CLR 08/M04 A3023 RMK AO2 T00801043 10135 20080
KRSN 121135Z AUTO 33003KT 10SM CLR 09/M04 A3022 RMK AO2 T00861042
KRSN 121115Z AUTO 33005KT 10SM CLR 09/M04 A3021 RMK AO2 T00901043
KRSN 121055Z AUTO 34005KT 10SM CLR 10/M04 A3020 RMK AO2 T00951044
KRSN 121035Z AUTO 35005KT 10SM CLR 10/M04 A3019 RMK AO2 T00981045
KRSN 121015Z AUTO 33006KT 10SM CLR 10/M04 A3019 RMK AO2 T01001045
KRSN 120955Z AUTO 35006KT 10SM CLR 11/M05 A3018 RMK AO2 T01051049
KRSN 120935Z AUTO 35007KT 10SM CLR 10/M05 A3017 RMK AO2 T00991051
KRSN 120915Z AUTO 34005KT 10SM CLR 10/M05 A3016 RMK AO2 T01021054
KRSN 120855Z AUTO 34003KT 10SM CLR 10/M05 A3016 RMK AO2 T01011050
KRSN 120835Z AUTO 34006KT 10SM CLR 11/M05 A3015 RMK AO2 T01071049
KRSN 120815Z AUTO 34006KT 10SM CLR 11/M04 A3014 RMK AO2 T01091044
KRSN 120755Z AUTO 33006KT 10SM CLR 11/M04 A3014 RMK AO2 T01121040
KRSN 120735Z AUTO 33005KT 10SM CLR 12/M03 A3013 RMK AO2 T01181035
KRSN 120715Z AUTO 32004KT 10SM CLR 12/M03 A3012 RMK AO2 T01221030
KRSN 120655Z AUTO 31003KT 10SM CLR 13/M02 A3012 RMK AO2 T01251023
KRSN 120635Z AUTO 33004KT 10SM CLR 13/M02 A3012 RMK AO2 T01311018
KRSN 120615Z AUTO 32004KT 10SM CLR 13/M01 A3012 RMK AO2 T01321009
KRSN 120555Z AUTO 29003KT 10SM CLR 14/00 A3012 RMK AO2 T01351001 10162 20133 402250025
KRSN 120535Z AUTO 28004KT 10SM CLR 14/00 A3011 RMK AO2 T01360003
KRSN 120515Z AUTO 25006KT 10SM CLR 14/01 A3010 RMK AO2 T01370006
KRSN 120455Z AUTO 26005KT 10SM CLR 14/01 A3010 RMK AO2 T01400007
KRSN 120435Z AUTO 26005KT 10SM CLR 14/01 A3009 RMK AO2 T01360011
KRSN 120415Z AUTO 25006KT 10SM CLR 13/02 A3009 RMK AO2 T01330015
KRSN 120355Z AUTO 23005KT 10SM CLR 14/02 A3008 RMK AO2 T01360015
KRSN 120335Z AUTO 22006KT 10SM CLR 14/02 A3008 RMK AO2 T01370015
KRSN 120315Z AUTO 22005KT 10SM CLR 14/02 A3009 RMK AO2 T01390015
KRSN 120255Z AUTO 22006KT 10SM CLR 15/01 A3009 RMK AO2 T01450011
KRSN 120235Z AUTO 23007KT 10SM CLR 15/01 A3009 RMK AO2 T01470010
KRSN 120215Z AUTO 22007KT 10SM CLR 15/01 A3009 RMK AO2 T01500005
KRSN 120155Z AUTO 22006KT 10SM CLR 15/00 A3009 RMK AO2 T01510000
KRSN 120135Z AUTO 21005KT 10SM CLR 15/00 A3009 RMK AO2 T01541005
KRSN 120115Z AUTO 00000KT 10SM CLR 16/M01 A3009 RMK AO2 T01561006
KRSN 120055Z AUTO 00000KT 10SM CLR 16/M01 A3009 RMK AO2 T01571009
KRSN 120035Z AUTO 00000KT 10SM CLR 16/M01 A3009 RMK AO2 T01601011
KRSN 120015Z AUTO 00000KT 10SM CLR 16/M01 A3008 RMK AO2 T01591010
KRSN 112355Z AUTO 00000KT 10SM CLR 15/00 A3008 RMK AO2 T01480000 10225 20145
KRSN 112335Z AUTO 20005KT 10SM CLR 15/00 A3008 RMK AO2 T01510000
KRSN 112315Z AUTO 21004KT 10SM CLR 16/00 A3008 RMK AO2 T01640000
KRSN 112255Z AUTO 00000KT 10SM CLR 18/00 A3008 RMK AO2 T01761002
KRSN 112235Z AUTO 21004KT 10SM CLR 19/M01 A3009 RMK AO2 T01901013
KRSN 112215Z AUTO 00000KT 10SM CLR 21/M03 A3009 RMK AO2 T02081029
KRSN 112155Z AUTO 00000KT 10SM CLR 21/M03 A3009 RMK AO2 T02131035
KRSN 112135Z AUTO 23005KT 10SM CLR 22/M03 A3010 RMK AO2 T02201034
KRSN 112115Z AUTO 24003KT 10SM CLR 22/M04 A3011 RMK AO2 T02221041
KRSN 112055Z AUTO 00000KT 10SM CLR 22/M04 A3012 RMK AO2 T02241041
KRSN 112035Z AUTO 22004KT 10SM CLR 22/M04 A3011 RMK AO2 T02181041
KRSN 112015Z AUTO 26006KT 10SM CLR 22/M05 A3012 RMK AO2 T02221046
KRSN 111955Z AUTO 21006KT 10SM CLR 22/M05 A3013 RMK AO2 T02201046
KRSN 111935Z AUTO 21005KT 10SM CLR 22/M03 A3014 RMK AO2 T02171029
KRSN 111915Z AUTO 25003KT 10SM CLR 21/M03 A3016 RMK AO2 T02091034
KRSN 111855Z AUTO 21005KT 10SM CLR 21/M03 A3018 RMK AO2 T02051027
KRSN 111835Z AUTO 22007KT 10SM CLR 20/M02 A3019 RMK AO2 T02041018
KRSN 111815Z AUTO 22004KT 10SM CLR 20/M02 A3020 RMK AO2 T01991023
KRSN 111755Z AUTO 22004KT 10SM CLR 19/M02 A3022 RMK AO2 T01891018 10191 20025
KRSN 111735Z AUTO 00000KT 10SM CLR 18/M01 A3023 RMK AO2 T01811008
KRSN 111715Z AUTO 21004KT 10SM CLR 17/00 A3025 RMK AO2 T01680003
KRSN 111655Z AUTO 24004KT 10SM CLR 15/01 A3026 RMK AO2 T01510005
KRSN 111635Z AUTO 23003KT 10SM CLR 14/00 A3027 RMK AO2 T01390004
KRSN 111615Z AUTO 21003KT 10SM CLR 13/01 A3028 RMK AO2 T01260006
KRSN 111555Z AUTO 26003KT 10SM CLR 11/00 A3029 RMK AO2 T01130003
KRSN 111535Z AUTO 23004KT 10SM CLR 10/01 A3029 RMK AO2 T01000005
KRSN 111515Z AUTO 24003KT 10SM CLR 09/01 A3029 RMK AO2 T00910005
KRSN 111455Z AUTO 00000KT 10SM CLR 08/00 A3028 RMK AO2 T00810003
KRSN 111435Z AUTO 25003KT 10SM CLR 07/00 A3028 RMK AO2 T00680001
KRSN 111415Z AUTO 00000KT 10SM CLR 06/00 A3028 RMK AO2 T00560000
KRSN 111355Z AUTO 00000KT 10SM CLR 05/00 A3027 RMK AO2 T00470000
KRSN 111335Z AUTO 00000KT 10SM CLR 04/00 A3027 RMK AO2 T00381001
KRSN 111315Z AUTO 00000KT 10SM CLR 03/00 A3027 RMK AO2 T00280000
KRSN 111255Z AUTO 00000KT 10SM CLR 04/00 A3027 RMK AO2 T00361002
KRSN 111235Z AUTO 00000KT 10SM CLR 04/00 A3027 RMK AO2 T00411004
KRSN 111215Z AUTO 00000KT 10SM CLR 05/00 A3027 RMK AO2 T00501005
KRSN 111155Z AUTO 00000KT 10SM CLR 05/00 A3027 RMK AO2 T00481003 10075 20045
KRSN 111135Z AUTO 00000KT 10SM CLR 05/00 A3028 RMK AO2 T00481002
KRSN 111115Z AUTO 00000KT 10SM CLR 05/00 A3028 RMK AO2 T00481001
KRSN 111055Z AUTO 00000KT 10SM CLR 05/00 A3028 RMK AO2 T00501001
KRSN 111035Z AUTO 00000KT 10SM CLR 05/00 A3028 RMK AO2 T00500000
KRSN 111015Z AUTO 00000KT 10SM CLR 05/00 A3028 RMK AO2 T00500000
KRSN 110955Z AUTO 00000KT 10SM CLR 05/00 A3028 RMK AO2 T00520000
KRSN 110935Z AUTO 00000KT 10SM CLR 05/00 A3029 RMK AO2 T00530000
KRSN 110915Z AUTO 23003KT 10SM CLR 06/00 A3028 RMK AO2 T00560000
KRSN 110855Z AUTO 00000KT 10SM CLR 06/00 A3028 RMK AO2 T00600000
KRSN 110835Z AUTO 00000KT 10SM CLR 06/00 A3028 RMK AO2 T00620000
KRSN 110815Z AUTO 00000KT 10SM CLR 07/00 A3029 RMK AO2 T00650000
KRSN 110755Z AUTO 00000KT 10SM CLR 07/00 A3029 RMK AO2 T00690000
KRSN 110735Z AUTO 00000KT 10SM CLR 07/00 A3029 RMK AO2 T00700000
KRSN 110715Z AUTO 22005KT 10SM CLR 07/00 A3029 RMK AO2 T00700000
KRSN 110655Z AUTO 23005KT 10SM CLR 07/00 A3029 RMK AO2 T00700000
KRSN 110635Z AUTO 22004KT 10SM CLR 07/00 A3029 RMK AO2 T00721001
KRSN 110615Z AUTO 22004KT 10SM CLR 07/00 A3030 RMK AO2 T00721001
KRSN 110555Z AUTO 22005KT 10SM CLR 08/00 A3030 RMK AO2 T00751001 10100 20075 401601027
KRSN 110535Z AUTO 22005KT 10SM CLR 08/00 A3030 RMK AO2 T00771002
KRSN 110515Z AUTO 22005KT 10SM CLR 08/00 A3030 RMK AO2 T00791002
KRSN 110455Z AUTO 22005KT 10SM CLR 08/00 A3031 RMK AO2 T00801003
KRSN 110435Z AUTO 22005KT 10SM CLR 08/00 A3031 RMK AO2 T00831005
KRSN 110415Z AUTO 22006KT 10SM CLR 09/00 A3031 RMK AO2 T00851005